createdAt,value
2018-05-21T00:01:47.007Z,0.90
2018-05-21T00:04:15.257Z,0.90
2018-05-21T00:06:44.311Z,0.80
2018-05-21T00:09:12.576Z,0.93
2018-05-21T00:11:40.828Z,0.87
2018-05-21T00:14:09.100Z,1.00
2018-05-21T00:16:37.368Z,1.30
2018-05-21T00:19:05.627Z,0.90
2018-05-21T00:21:34.645Z,1.10
2018-05-21T00:24:02.909Z,0.80
2018-05-21T00:26:32.014Z,0.80
2018-05-21T00:29:00.292Z,0.97
2018-05-21T00:31:28.542Z,1.00
2018-05-21T00:33:57.556Z,0.63
2018-05-21T00:36:25.828Z,0.93
2018-05-21T00:38:54.936Z,0.90
2018-05-21T00:41:23.220Z,0.83
2018-05-21T00:43:51.500Z,1.07
2018-05-21T00:46:19.736Z,0.70
2018-05-21T00:48:47.993Z,0.83
2018-05-21T00:51:16.328Z,0.93
2018-05-21T00:53:44.601Z,0.67
2018-05-21T00:56:12.877Z,1.00
2018-05-21T00:58:41.139Z,0.90
2018-05-21T01:01:09.398Z,0.83
2018-05-21T01:03:38.516Z,0.80
2018-05-21T01:06:06.806Z,0.80
2018-05-21T01:08:35.069Z,0.80
2018-05-21T01:11:03.344Z,0.93
2018-05-21T01:13:31.621Z,0.90
2018-05-21T01:15:59.889Z,1.20
2018-05-21T01:18:28.176Z,1.33
2018-05-21T01:20:56.428Z,1.00
2018-05-21T01:23:25.546Z,0.90
2018-05-21T01:25:53.840Z,1.10
2018-05-21T01:28:22.106Z,1.20
2018-05-21T01:30:50.369Z,0.70
2018-05-21T01:33:18.657Z,0.80
2018-05-21T01:35:46.907Z,1.00
2018-05-21T01:38:15.935Z,1.00
2018-05-21T01:40:44.184Z,1.40
2018-05-21T01:43:13.309Z,0.87
2018-05-21T01:45:41.577Z,1.00
2018-05-21T01:48:09.829Z,1.10
2018-05-21T01:50:38.849Z,1.00
2018-05-21T01:53:07.133Z,0.80
2018-05-21T01:55:35.401Z,0.97
2018-05-21T01:58:03.669Z,0.87
2018-05-21T02:00:32.570Z,1.17
2018-05-21T02:03:00.837Z,0.97
2018-05-21T02:05:29.092Z,1.10
2018-05-21T02:07:58.123Z,1.20
2018-05-21T02:10:26.378Z,1.20
2018-05-21T02:12:54.645Z,1.12
2018-05-21T02:15:23.664Z,1.10
2018-05-21T02:17:51.925Z,0.97
2018-05-21T02:20:20.187Z,1.10
2018-05-21T02:22:49.302Z,0.93
2018-05-21T02:25:17.561Z,1.30
2018-05-21T02:27:46.602Z,1.27
2018-05-21T02:30:14.855Z,1.13
2018-05-21T02:32:43.106Z,1.17
2018-05-21T02:35:11.385Z,1.40
2018-05-21T02:37:39.645Z,1.23
2018-05-21T02:40:08.768Z,1.40
2018-05-21T02:42:37.034Z,1.60
2018-05-21T02:45:06.041Z,1.47
2018-05-21T02:47:34.421Z,1.30
2018-05-21T02:50:02.699Z,1.40
2018-05-21T02:52:30.956Z,1.50
2018-05-21T02:54:59.981Z,1.50
2018-05-21T02:57:28.341Z,1.60
2018-05-21T02:59:56.600Z,1.50
2018-05-21T03:02:25.674Z,1.60
2018-05-21T03:04:53.950Z,1.37
2018-05-21T03:07:22.229Z,1.70
2018-05-21T03:09:50.536Z,1.70
2018-05-21T03:12:18.793Z,1.83
2018-05-21T03:14:47.814Z,1.20
2018-05-21T03:17:16.089Z,1.50
2018-05-21T03:19:44.366Z,1.30
2018-05-21T03:22:12.669Z,1.83
2018-05-21T03:24:40.930Z,1.17
2018-05-21T03:27:09.181Z,1.50
2018-05-21T03:29:38.236Z,1.70
2018-05-21T03:32:06.498Z,1.40
2018-05-21T03:34:34.764Z,1.47
2018-05-21T03:37:03.013Z,1.03
2018-05-21T03:39:31.296Z,1.60
2018-05-21T03:41:59.561Z,1.13
2018-05-21T03:44:28.581Z,1.20
2018-05-21T03:46:56.836Z,1.43
2018-05-21T03:49:25.114Z,1.50
2018-05-21T03:51:53.365Z,1.40
2018-05-21T03:54:22.397Z,1.10
2018-05-21T03:56:50.659Z,1.10
2018-05-21T03:59:36.685Z,1.57
2018-05-21T04:02:22.680Z,1.40
2018-05-21T04:04:51.020Z,1.37
2018-05-21T04:07:19.309Z,1.50
2018-05-21T04:09:46.902Z,1.50
2018-05-21T04:12:15.183Z,2.07
2018-05-21T04:14:43.436Z,1.50
2018-05-21T04:17:11.694Z,1.47
2018-05-21T04:19:40.060Z,1.33
2018-05-21T04:22:08.329Z,1.43
2018-05-21T04:24:37.432Z,1.20
2018-05-21T04:27:05.704Z,1.40
2018-05-21T04:29:33.957Z,1.47
2018-05-21T04:32:02.281Z,1.33
2018-05-21T04:34:30.556Z,1.67
2018-05-21T04:36:58.809Z,1.37
2018-05-21T04:39:27.836Z,1.33
2018-05-21T04:41:56.086Z,1.47
2018-05-21T04:44:24.376Z,1.50
2018-05-21T04:46:52.638Z,1.40
2018-05-21T04:49:20.930Z,1.50
2018-05-21T04:51:49.208Z,1.40
2018-05-21T04:54:17.528Z,1.70
2018-05-21T04:56:45.768Z,1.60
2018-05-21T04:59:14.023Z,1.40
2018-05-21T05:01:42.297Z,1.40
2018-05-21T05:04:10.552Z,1.43
2018-05-21T05:06:39.667Z,1.63
2018-05-21T05:09:07.954Z,1.33
2018-05-21T05:11:36.210Z,1.30
2018-05-21T05:14:05.240Z,1.57
2018-05-21T05:16:33.497Z,1.67
2018-05-21T05:19:01.745Z,1.90
2018-05-21T05:21:30.777Z,1.53
2018-05-21T05:23:59.040Z,1.80
2018-05-21T05:26:27.316Z,1.57
2018-05-21T05:28:55.602Z,1.60
2018-05-21T05:31:23.849Z,1.90
2018-05-21T05:33:52.876Z,1.83
2018-05-21T05:36:21.145Z,1.70
2018-05-21T05:38:49.402Z,1.70
2018-05-21T05:41:18.502Z,1.73
2018-05-21T05:43:46.795Z,1.73
2018-05-21T05:46:15.044Z,1.60
2018-05-21T05:48:44.105Z,2.30
2018-05-21T05:51:12.333Z,1.83
2018-05-21T05:53:40.607Z,1.77
2018-05-21T05:56:08.869Z,2.30
2018-05-21T05:58:37.979Z,1.47
2018-05-21T06:01:06.235Z,1.50
2018-05-21T06:03:35.262Z,2.10
2018-05-21T06:06:03.528Z,1.93
2018-05-21T06:08:31.800Z,2.80
2018-05-21T06:11:00.092Z,1.90
2018-05-21T06:13:28.352Z,2.93
2018-05-21T06:15:56.614Z,1.67
2018-05-21T06:18:25.730Z,1.50
2018-05-21T06:20:53.989Z,2.30
2018-05-21T06:23:23.079Z,2.03
2018-05-21T06:25:51.490Z,1.90
2018-05-21T06:28:19.751Z,2.30
2018-05-21T06:30:48.079Z,1.70
2018-05-21T06:33:16.379Z,1.93
2018-05-21T06:35:45.453Z,2.20
2018-05-21T06:38:13.772Z,2.17
2018-05-21T06:40:42.980Z,2.03
2018-05-21T06:43:11.256Z,2.20
2018-05-21T06:45:39.506Z,1.97
2018-05-21T06:48:08.530Z,2.20
2018-05-21T06:50:36.875Z,2.30
2018-05-21T06:53:05.077Z,2.30
2018-05-21T06:55:33.341Z,1.83
2018-05-21T06:58:02.383Z,2.23
2018-05-21T07:00:30.968Z,3.10
2018-05-21T07:02:59.228Z,1.90
2018-05-21T07:05:27.493Z,2.00
2018-05-21T07:07:55.831Z,2.27
2018-05-21T07:10:24.143Z,1.93
2018-05-21T07:12:52.405Z,2.50
2018-05-21T07:15:20.654Z,2.27
2018-05-21T07:17:48.968Z,1.87
2018-05-21T07:20:17.241Z,1.70
2018-05-21T07:22:45.493Z,2.50
2018-05-21T07:25:14.621Z,2.30
2018-05-21T07:27:43.066Z,2.20
2018-05-21T07:30:11.354Z,2.03
2018-05-21T07:32:40.376Z,2.70
2018-05-21T07:35:08.651Z,2.37
2018-05-21T07:37:36.914Z,2.73
2018-05-21T07:40:05.159Z,2.57
2018-05-21T07:42:33.477Z,2.30
2018-05-21T07:45:01.757Z,2.30
2018-05-21T07:47:30.133Z,2.43
2018-05-21T07:49:58.400Z,2.80
2018-05-21T07:52:26.685Z,2.40
2018-05-21T07:54:54.939Z,2.63
2018-05-21T07:57:23.981Z,2.30
2018-05-21T07:59:52.323Z,1.90
2018-05-21T08:02:20.615Z,2.87
2018-05-21T08:04:48.891Z,2.20
2018-05-21T08:07:17.144Z,2.57
2018-05-21T08:09:46.169Z,2.50
2018-05-21T08:12:14.533Z,2.20
2018-05-21T08:14:42.905Z,2.60
2018-05-21T08:17:11.835Z,1.87
2018-05-21T08:19:40.101Z,3.10
2018-05-21T08:22:08.462Z,2.50
2018-05-21T08:24:37.440Z,1.90
2018-05-21T08:27:05.729Z,2.30
2018-05-21T08:29:34.001Z,2.30
2018-05-21T08:32:02.264Z,2.37
2018-05-21T08:34:33.008Z,2.00
2018-05-21T08:37:01.308Z,2.27
2018-05-21T08:39:29.548Z,2.20
2018-05-21T08:41:58.583Z,2.23
2018-05-21T08:44:26.835Z,2.17
2018-05-21T08:46:55.080Z,2.03
2018-05-21T08:49:24.201Z,2.07
2018-05-21T08:51:52.476Z,2.30
2018-05-21T08:54:20.761Z,2.07
2018-05-21T08:56:49.241Z,2.10
2018-05-21T08:59:17.493Z,2.07
2018-05-21T09:01:46.513Z,2.00
2018-05-21T09:04:14.781Z,1.80
2018-05-21T09:06:43.065Z,1.60
2018-05-21T09:09:11.325Z,2.07
2018-05-21T09:11:39.596Z,1.90
2018-05-21T09:14:08.619Z,1.83
2018-05-21T09:16:36.872Z,1.83
2018-05-21T09:19:05.989Z,1.80
2018-05-21T09:21:34.250Z,1.70
2018-05-21T09:24:02.544Z,1.90
2018-05-21T09:26:30.881Z,1.90
2018-05-21T09:28:59.912Z,1.60
2018-05-21T09:31:28.193Z,1.60
2018-05-21T09:33:56.441Z,1.67
2018-05-21T09:36:24.718Z,1.90
2018-05-21T09:38:53.822Z,1.80
2018-05-21T09:41:22.089Z,1.90
2018-05-21T09:43:51.131Z,1.50
2018-05-21T09:46:19.412Z,1.87
2018-05-21T09:48:47.813Z,2.03
2018-05-21T09:51:15.939Z,2.10
2018-05-21T09:53:44.181Z,1.90
2018-05-21T09:56:13.296Z,1.50
2018-05-21T09:58:41.554Z,2.00
2018-05-21T10:01:10.581Z,1.87
2018-05-21T10:03:38.844Z,1.40
2018-05-21T10:06:07.243Z,1.70
2018-05-21T10:08:35.485Z,1.60
2018-05-21T10:11:04.516Z,1.60
2018-05-21T10:13:32.769Z,1.97
2018-05-21T10:16:01.053Z,2.00
2018-05-21T10:18:29.432Z,1.73
2018-05-21T10:20:57.676Z,1.57
2018-05-21T10:23:26.695Z,1.90
2018-05-21T10:25:55.143Z,1.60
2018-05-21T10:28:23.317Z,1.50
2018-05-21T10:30:52.345Z,1.70
2018-05-21T10:33:20.644Z,1.37
2018-05-21T10:35:48.901Z,1.60
2018-05-21T10:38:17.157Z,1.47
2018-05-21T10:40:45.444Z,1.83
2018-05-21T10:43:13.732Z,1.93
2018-05-21T10:45:41.996Z,1.83
2018-05-21T10:48:10.272Z,1.70
2018-05-21T10:50:38.521Z,1.83
2018-05-21T10:53:07.640Z,1.40
2018-05-21T10:55:35.940Z,3.10
2018-05-21T10:58:04.300Z,2.30
2018-05-21T11:00:32.543Z,1.90
2018-05-21T11:03:01.583Z,1.70
2018-05-21T11:05:29.829Z,1.70
2018-05-21T11:07:58.858Z,1.60
2018-05-21T11:10:27.217Z,1.60
2018-05-21T11:12:55.464Z,1.50
2018-05-21T11:15:24.484Z,1.77
2018-05-21T11:17:52.846Z,1.87
2018-05-21T11:20:21.045Z,1.20
2018-05-21T11:22:49.320Z,1.40
2018-05-21T11:25:17.597Z,1.70
2018-05-21T11:27:45.865Z,1.20
2018-05-21T11:30:14.114Z,2.00
2018-05-21T11:32:42.378Z,1.30
2018-05-21T11:35:10.630Z,1.57
2018-05-21T11:37:38.975Z,1.47
2018-05-21T11:40:07.264Z,2.00
2018-05-21T11:42:35.508Z,1.60
2018-05-21T11:45:04.520Z,1.80
2018-05-21T11:47:32.810Z,1.33
2018-05-21T11:50:01.177Z,1.33
2018-05-21T11:52:29.328Z,1.37
2018-05-21T11:54:58.388Z,1.80
2018-05-21T11:57:26.721Z,1.57
2018-05-21T11:59:55.165Z,1.40
2018-05-21T12:02:23.427Z,1.57
2018-05-21T12:04:51.675Z,1.37
2018-05-21T12:07:20.032Z,2.00
2018-05-21T12:09:48.313Z,1.40
2018-05-21T12:12:16.572Z,1.27
2018-05-21T12:14:44.833Z,1.77
2018-05-21T12:17:13.898Z,1.33
2018-05-21T12:19:42.225Z,1.53
2018-05-21T12:22:10.524Z,1.43
2018-05-21T12:24:38.889Z,1.50
2018-05-21T12:27:07.138Z,1.57
2018-05-21T12:29:36.150Z,1.87
2018-05-21T12:32:04.438Z,5.10
2018-05-21T12:34:32.725Z,4.90
2018-05-21T12:37:00.997Z,5.43
2018-05-21T12:39:29.244Z,1.73
2018-05-21T12:41:58.374Z,1.60
2018-05-21T12:44:26.714Z,1.50
2018-05-21T12:46:54.970Z,1.50
2018-05-21T12:49:23.921Z,1.53
2018-05-21T12:51:52.189Z,1.60
2018-05-21T12:54:20.445Z,1.57
2018-05-21T12:56:49.469Z,1.73
2018-05-21T12:59:17.733Z,1.40
2018-05-21T13:01:46.011Z,1.77
2018-05-21T13:04:14.281Z,1.47
2018-05-21T13:06:42.562Z,1.50
2018-05-21T13:09:10.804Z,1.43
2018-05-21T13:11:39.830Z,1.50
2018-05-21T13:14:08.215Z,1.40
2018-05-21T13:16:36.477Z,1.57
2018-05-21T13:19:04.726Z,1.20
2018-05-21T13:21:33.762Z,1.23
2018-05-21T13:24:02.033Z,1.60
2018-05-21T13:26:30.278Z,1.50
2018-05-21T13:28:59.407Z,1.43
2018-05-21T13:31:27.658Z,1.50
2018-05-21T13:33:56.673Z,1.40
2018-05-21T13:36:24.945Z,1.37
2018-05-21T13:38:53.215Z,2.10
2018-05-21T13:41:21.464Z,1.40
2018-05-21T13:43:50.504Z,1.30
2018-05-21T13:46:18.769Z,1.53
2018-05-21T13:48:47.037Z,1.40
2018-05-21T13:51:15.363Z,1.50
2018-05-21T13:53:43.612Z,1.80
2018-05-21T13:56:11.896Z,1.35
2018-05-21T13:58:40.180Z,1.40
2018-05-21T14:01:09.366Z,1.00
2018-05-21T14:03:37.641Z,1.30
2018-05-21T14:06:05.997Z,1.00
2018-05-21T14:08:34.261Z,1.10
2018-05-21T14:11:03.280Z,1.27
2018-05-21T14:13:31.557Z,1.60
2018-05-21T14:15:59.808Z,1.17
2018-05-21T14:18:28.832Z,1.40
2018-05-21T14:20:57.100Z,1.63
2018-05-21T14:23:25.352Z,1.20
2018-05-21T14:25:55.615Z,1.20
2018-05-21T14:28:23.992Z,1.60
2018-05-21T14:30:52.241Z,1.70
2018-05-21T14:33:20.484Z,1.23
2018-05-21T14:35:48.792Z,1.03
2018-05-21T14:38:18.912Z,1.50
2018-05-21T14:40:47.252Z,1.53
2018-05-21T14:43:15.604Z,1.30
2018-05-21T14:45:43.946Z,1.40
2018-05-21T14:48:12.307Z,2.03
2018-05-21T14:50:41.407Z,2.73
2018-05-21T14:53:09.748Z,1.60
2018-05-21T14:55:38.069Z,1.67
2018-05-21T14:58:06.395Z,1.30
2018-05-21T15:00:34.852Z,1.50
2018-05-21T15:03:03.942Z,1.20
2018-05-21T15:05:32.309Z,1.13
2018-05-21T15:08:01.347Z,1.13
2018-05-21T15:10:29.669Z,1.30
2018-05-21T15:12:58.765Z,1.50
2018-05-21T15:15:27.080Z,1.10
2018-05-21T15:17:55.386Z,1.20
2018-05-21T15:20:24.484Z,1.40
2018-05-21T15:22:52.818Z,1.20
2018-05-21T15:25:21.134Z,1.43
2018-05-21T15:27:49.468Z,1.03
2018-05-21T15:30:17.788Z,1.40
2018-05-21T15:32:46.085Z,1.27
2018-05-21T15:35:15.181Z,1.20
2018-05-21T15:37:43.523Z,1.30
2018-05-21T15:40:12.613Z,1.00
2018-05-21T15:42:40.953Z,1.10
2018-05-21T15:45:09.290Z,1.23
2018-05-21T15:47:37.598Z,1.23
2018-05-21T15:50:05.914Z,0.97
2018-05-21T15:52:34.278Z,1.10
2018-05-21T15:55:02.612Z,1.10
2018-05-21T15:57:31.733Z,1.20
2018-05-21T16:00:00.065Z,1.20
2018-05-21T16:02:28.424Z,1.10
2018-05-21T16:04:56.785Z,1.00
2018-05-21T16:07:25.105Z,1.00
2018-05-21T16:09:53.442Z,1.03
2018-05-21T16:12:21.768Z,1.30
2018-05-21T16:14:50.145Z,1.40
2018-05-21T16:17:18.488Z,1.10
2018-05-21T16:19:46.852Z,1.30
2018-05-21T16:22:15.187Z,1.33
2018-05-21T16:24:44.286Z,1.20
2018-05-21T16:27:12.718Z,1.30
2018-05-21T16:29:41.017Z,1.40
2018-05-21T16:32:09.365Z,1.13
2018-05-21T16:34:37.628Z,1.23
2018-05-21T16:37:05.949Z,1.20
2018-05-21T16:39:34.260Z,1.23
2018-05-21T16:42:03.373Z,1.40
2018-05-21T16:44:31.656Z,1.33
2018-05-21T16:46:59.936Z,1.50
2018-05-21T16:49:28.291Z,1.47
2018-05-21T16:51:56.489Z,1.30
2018-05-21T16:54:24.769Z,1.20
2018-05-21T16:56:53.065Z,1.63
2018-05-21T16:59:21.408Z,1.30
2018-05-21T17:01:49.784Z,1.17
2018-05-21T17:04:18.080Z,1.07
2018-05-21T17:06:46.502Z,1.30
2018-05-21T17:09:15.003Z,1.10
2018-05-21T17:11:43.253Z,1.17
2018-05-21T17:14:11.589Z,1.20
2018-05-21T17:16:39.932Z,1.30
2018-05-21T17:19:08.458Z,1.03
2018-05-21T17:21:36.751Z,1.10
2018-05-21T17:24:05.014Z,1.00
2018-05-21T17:26:33.305Z,1.10
2018-05-21T17:29:01.663Z,1.00
2018-05-21T17:31:29.987Z,1.10
2018-05-21T17:33:58.396Z,1.17
2018-05-21T17:36:26.750Z,0.80
2018-05-21T17:38:55.899Z,1.13
2018-05-21T17:41:24.691Z,0.90
2018-05-21T17:43:53.489Z,1.40
2018-05-21T17:46:22.158Z,1.20
2018-05-21T17:48:50.709Z,1.03
2018-05-21T17:51:20.114Z,1.20
2018-05-21T17:53:49.372Z,1.30
2018-05-21T17:56:19.231Z,1.00
2018-05-21T17:58:49.162Z,0.90
2018-05-21T18:01:19.947Z,1.20
2018-05-21T18:03:49.931Z,1.23
2018-05-21T18:06:19.821Z,1.10
2018-05-21T18:08:49.576Z,1.67
2018-05-21T18:11:19.253Z,1.37
2018-05-21T18:13:49.305Z,1.40
2018-05-21T18:16:19.386Z,1.13
2018-05-21T18:18:49.367Z,1.17
2018-05-21T18:21:20.303Z,1.40
2018-05-21T18:23:50.492Z,1.33
2018-05-21T18:26:20.438Z,1.20
2018-05-21T18:28:51.523Z,1.20
2018-05-21T18:31:22.376Z,1.27
2018-05-21T18:33:52.553Z,1.43
2018-05-21T18:36:22.484Z,1.30
2018-05-21T18:38:53.281Z,2.73
2018-05-21T18:41:23.209Z,4.30
2018-05-21T18:43:54.604Z,3.23
2018-05-21T18:46:24.591Z,2.47
2018-05-21T18:48:55.338Z,1.60
2018-05-21T18:51:26.167Z,1.40
2018-05-21T18:53:56.103Z,1.37
2018-05-21T18:56:25.936Z,1.73
2018-05-21T18:58:56.072Z,1.57
2018-05-21T19:01:26.327Z,1.80
2018-05-21T19:03:56.269Z,1.33
2018-05-21T19:06:27.081Z,1.47
2018-05-21T19:08:57.013Z,2.63
2018-05-21T19:11:26.957Z,2.87
2018-05-21T19:13:57.033Z,8.30
2018-05-21T19:16:27.954Z,6.43
2018-05-21T19:18:57.952Z,4.27
2018-05-21T19:21:28.125Z,2.50
2018-05-21T19:23:59.457Z,2.10
2018-05-21T19:26:30.098Z,1.30
2018-05-21T19:29:00.911Z,1.50
2018-05-21T19:31:30.791Z,1.70
2018-05-21T19:34:00.874Z,1.40
2018-05-21T19:36:31.519Z,1.67
2018-05-21T19:39:02.228Z,1.30
2018-05-21T19:41:32.112Z,1.23
2018-05-21T19:44:01.941Z,1.33
2018-05-21T19:46:31.639Z,1.30
2018-05-21T19:49:01.831Z,1.43
2018-05-21T19:51:32.035Z,1.33
2018-05-21T19:54:01.982Z,1.67
2018-05-21T19:56:31.835Z,1.30
2018-05-21T19:59:02.532Z,1.20
2018-05-21T20:01:32.654Z,1.20
2018-05-21T20:04:02.815Z,1.30
2018-05-21T20:06:33.694Z,0.83
2018-05-21T20:09:03.860Z,1.50
2018-05-21T20:11:34.587Z,1.30
2018-05-21T20:14:04.922Z,1.20
2018-05-21T20:16:35.761Z,1.25
2018-05-21T20:19:06.425Z,1.17
2018-05-21T20:21:36.236Z,1.27
2018-05-21T20:24:06.948Z,1.17
2018-05-21T20:26:38.231Z,1.50
2018-05-21T20:29:08.155Z,1.40
2018-05-21T20:31:37.800Z,1.30
2018-05-21T20:34:08.259Z,1.40
2018-05-21T20:36:39.014Z,1.77
2018-05-21T20:39:08.949Z,1.20
2018-05-21T20:41:38.641Z,1.10
2018-05-21T20:44:08.772Z,1.37
2018-05-21T20:46:38.488Z,1.80
2018-05-21T20:49:08.732Z,2.00
2018-05-21T20:51:39.221Z,1.57
2018-05-21T20:54:08.923Z,1.30
2018-05-21T20:56:38.555Z,1.37
2018-05-21T20:59:08.295Z,1.23
2018-05-21T21:01:38.726Z,1.20
2018-05-21T21:04:09.227Z,1.03
2018-05-21T21:06:38.955Z,1.00
2018-05-21T21:09:09.366Z,1.00
2018-05-21T21:11:39.015Z,1.30
2018-05-21T21:14:09.450Z,1.40
2018-05-21T21:16:39.757Z,1.57
2018-05-21T21:19:10.009Z,1.20
2018-05-21T21:21:39.190Z,1.30
2018-05-21T21:24:07.548Z,1.50
2018-05-21T21:26:35.887Z,1.03
2018-05-21T21:29:05.029Z,1.20
2018-05-21T21:31:33.340Z,1.43
2018-05-21T21:34:01.690Z,1.43
2018-05-21T21:36:30.012Z,1.20
2018-05-21T21:38:58.364Z,1.00
2018-05-21T21:41:26.672Z,1.20
2018-05-21T21:43:55.021Z,1.20
2018-05-21T21:46:23.357Z,1.50
2018-05-21T21:48:52.433Z,1.20
2018-05-21T21:51:20.736Z,1.35
2018-05-21T21:53:49.816Z,1.37
2018-05-21T21:56:18.904Z,1.30
2018-05-21T21:58:47.971Z,1.40
2018-05-21T22:01:17.844Z,1.10
2018-05-21T22:03:46.168Z,1.57
2018-05-21T22:06:15.271Z,1.10
2018-05-21T22:08:43.606Z,1.40
2018-05-21T22:11:11.916Z,1.17
2018-05-21T22:13:40.260Z,1.50
2018-05-21T22:16:08.593Z,1.50
2018-05-21T22:18:38.431Z,1.30
2018-05-21T22:21:07.504Z,1.50
2018-05-21T22:23:36.604Z,1.13
2018-05-21T22:26:05.990Z,1.25
2018-05-21T22:28:35.853Z,1.30
2018-05-21T22:31:04.187Z,1.33
2018-05-21T22:33:33.287Z,1.40
2018-05-21T22:36:02.404Z,1.50
2018-05-21T22:38:30.726Z,1.27
2018-05-21T22:40:59.033Z,1.90
2018-05-21T22:43:28.167Z,1.47
2018-05-21T22:45:56.468Z,1.40
2018-05-21T22:48:24.794Z,1.20
2018-05-21T22:50:53.899Z,1.37
2018-05-21T22:53:22.984Z,1.30
2018-05-21T22:55:52.080Z,1.70
2018-05-21T22:58:21.175Z,1.40
2018-05-21T23:00:50.294Z,1.53
2018-05-21T23:03:19.370Z,1.20
2018-05-21T23:05:48.472Z,2.53
2018-05-21T23:08:17.555Z,1.67
2018-05-21T23:10:46.663Z,1.00
2018-05-21T23:13:15.759Z,1.70
2018-05-21T23:15:44.832Z,1.43
2018-05-21T23:18:13.184Z,1.53
2018-05-21T23:20:41.493Z,1.13
2018-05-21T23:23:09.793Z,1.30
2018-05-21T23:25:38.892Z,2.13
2018-05-21T23:28:07.221Z,1.40
2018-05-21T23:30:35.568Z,1.23
2018-05-21T23:33:03.889Z,1.10
2018-05-21T23:35:32.175Z,1.43
2018-05-21T23:38:01.283Z,1.37
2018-05-21T23:40:30.364Z,1.60
2018-05-21T23:43:00.212Z,1.20
2018-05-21T23:45:28.531Z,1.20
2018-05-21T23:47:56.849Z,1.50
2018-05-21T23:50:25.976Z,1.50
2018-05-21T23:52:54.283Z,1.03
2018-05-21T23:55:22.582Z,1.37
2018-05-21T23:57:51.667Z,1.40
